createdAt,value
2017-01-03T00:00:46.714Z,71.8
2017-01-03T00:01:55.701Z,71.22
2017-01-03T00:03:04.681Z,71.22
2017-01-03T00:04:13.729Z,71.42
2017-01-03T00:05:22.949Z,71.42
2017-01-03T00:06:31.924Z,71.32
2017-01-03T00:07:40.911Z,71.51
2017-01-03T00:08:49.921Z,68.81
2017-01-03T00:09:58.894Z,63.09
2017-01-03T00:11:07.884Z,62.31
2017-01-03T00:12:16.857Z,59.78
2017-01-03T00:13:25.844Z,59.27
2017-01-03T00:14:34.819Z,58.97
2017-01-03T00:15:43.811Z,59.04
2017-01-03T00:16:53.212Z,58.75
2017-01-03T00:18:02.196Z,57.57
2017-01-03T00:19:11.180Z,58.34
2017-01-03T00:20:20.155Z,57.15
2017-01-03T00:21:29.129Z,57.54
2017-01-03T00:22:38.107Z,58.12
2017-01-03T00:23:47.138Z,57.73
2017-01-03T00:24:56.126Z,57.32
2017-01-03T00:26:05.111Z,57.7
2017-01-03T00:27:14.095Z,56.84
2017-01-03T00:28:23.075Z,57.9
2017-01-03T00:29:32.060Z,57
2017-01-03T00:30:41.049Z,57.1
2017-01-03T00:31:50.025Z,57
2017-01-03T00:32:58.997Z,56.81
2017-01-03T00:34:07.974Z,57.2
2017-01-03T00:35:16.953Z,56.23
2017-01-03T00:36:25.967Z,56.49
2017-01-03T00:37:34.937Z,56.4
2017-01-03T00:38:43.909Z,57.04
2017-01-03T00:39:52.894Z,56.95
2017-01-03T00:41:01.870Z,56.18
2017-01-03T00:42:10.854Z,57.62
2017-01-03T00:43:19.830Z,56.85
2017-01-03T00:44:28.810Z,57.62
2017-01-03T00:45:37.773Z,58.2
2017-01-03T00:46:46.748Z,58.74
2017-01-03T00:47:55.731Z,58.64
2017-01-03T00:49:04.698Z,58.26
2017-01-03T00:50:13.696Z,57.78
2017-01-03T00:51:22.675Z,57.68
2017-01-03T00:52:31.665Z,57.3
2017-01-03T00:53:40.657Z,58.45
2017-01-03T00:54:49.636Z,57.68
2017-01-03T00:55:58.633Z,58.04
2017-01-03T00:57:07.614Z,57.75
2017-01-03T00:58:16.600Z,58.33
2017-01-03T00:59:25.574Z,58.62
2017-01-03T01:00:34.551Z,58.52
2017-01-03T01:01:43.521Z,57.95
2017-01-03T01:02:52.490Z,58.04
2017-01-03T01:04:01.472Z,58.62
2017-01-03T01:05:10.463Z,58.87
2017-01-03T01:06:19.440Z,58.69
2017-01-03T01:07:28.403Z,58.78
2017-01-03T01:08:37.395Z,58.78
2017-01-03T01:09:46.365Z,58.69
2017-01-03T01:10:55.374Z,58.49
2017-01-03T01:12:04.356Z,58.78
2017-01-03T01:13:13.336Z,58.39
2017-01-03T01:14:22.298Z,58.49
2017-01-03T01:15:31.284Z,58.65
2017-01-03T01:16:40.267Z,58.3
2017-01-03T01:17:49.250Z,58.65
2017-01-03T01:18:58.237Z,59.04
2017-01-03T01:20:07.206Z,58.39
2017-01-03T01:21:16.190Z,59.33
2017-01-03T01:22:25.163Z,58.11
2017-01-03T01:23:34.138Z,58.69
2017-01-03T01:24:43.099Z,58.56
2017-01-03T01:25:52.077Z,58.59
2017-01-03T01:27:01.044Z,58.69
2017-01-03T01:28:10.032Z,58.39
2017-01-03T01:29:19.034Z,58.49
2017-01-03T01:30:28.000Z,58.3
2017-01-03T01:31:36.981Z,58.39
2017-01-03T01:32:45.956Z,58.69
2017-01-03T01:33:54.950Z,58.49
2017-01-03T01:35:03.925Z,58.39
2017-01-03T01:36:12.891Z,58.49
2017-01-03T01:37:21.868Z,58.59
2017-01-03T01:38:30.847Z,58.69
2017-01-03T01:39:39.822Z,58.49
2017-01-03T01:40:48.796Z,58.84
2017-01-03T01:41:57.782Z,58.65
2017-01-03T01:43:06.869Z,58.56
2017-01-03T01:44:15.839Z,58.56
2017-01-03T01:45:24.814Z,59.52
2017-01-03T01:46:33.809Z,59.33
2017-01-03T01:47:42.798Z,59.42
2017-01-03T01:48:51.783Z,59.9
2017-01-03T01:50:00.751Z,59.33
2017-01-03T01:51:09.727Z,59.3
2017-01-03T01:52:18.705Z,58.91
2017-01-03T01:53:27.688Z,58.91
2017-01-03T01:54:36.661Z,58.81
2017-01-03T01:55:45.636Z,58.91
2017-01-03T01:56:54.607Z,59.39
2017-01-03T01:58:03.588Z,59.39
2017-01-03T01:59:12.581Z,59.58
2017-01-03T02:00:21.545Z,59.3
2017-01-03T02:01:30.523Z,59.48
2017-01-03T02:02:39.498Z,60.16
2017-01-03T02:03:48.493Z,59.39
2017-01-03T02:04:57.457Z,60.35
2017-01-03T02:06:06.446Z,59.48
2017-01-03T02:07:15.429Z,59.77
2017-01-03T02:08:24.390Z,59.36
2017-01-03T02:09:33.374Z,60.22
2017-01-03T02:10:42.342Z,60.22
2017-01-03T02:11:51.326Z,59.27
2017-01-03T02:13:00.297Z,60.03
2017-01-03T02:14:09.272Z,59.65
2017-01-03T02:15:18.244Z,60.22
2017-01-03T02:16:27.233Z,60.03
2017-01-03T02:17:36.208Z,60.03
2017-01-03T02:18:45.174Z,60.51
2017-01-03T02:19:54.162Z,60.41
2017-01-03T02:21:03.137Z,60.22
2017-01-03T02:22:12.104Z,60.03
2017-01-03T02:23:21.080Z,59.45
2017-01-03T02:24:30.045Z,59.84
2017-01-03T02:25:39.936Z,60.22
2017-01-03T02:26:48.922Z,60.22
2017-01-03T02:27:57.897Z,59.65
2017-01-03T02:29:06.856Z,60.22
2017-01-03T02:30:15.862Z,60.22
2017-01-03T02:31:24.830Z,60.03
2017-01-03T02:32:33.817Z,60.03
2017-01-03T02:33:42.789Z,59.77
2017-01-03T02:34:51.762Z,60.22
2017-01-03T02:36:00.735Z,60.13
2017-01-03T02:37:09.713Z,60.13
2017-01-03T02:38:18.684Z,59.94
2017-01-03T02:39:27.681Z,60.32
2017-01-03T02:40:36.669Z,60.03
2017-01-03T02:41:45.640Z,60.22
2017-01-03T02:42:54.621Z,60.61
2017-01-03T02:44:03.602Z,60.32
2017-01-03T02:45:12.578Z,60.13
2017-01-03T02:46:21.540Z,60.32
2017-01-03T02:47:30.513Z,59.94
2017-01-03T02:48:39.497Z,60.22
2017-01-03T02:49:48.465Z,60.32
2017-01-03T02:50:57.428Z,60.22
2017-01-03T02:52:06.429Z,60.51
2017-01-03T02:53:15.403Z,60.38
2017-01-03T02:54:24.388Z,60.58
2017-01-03T02:55:33.364Z,60.41
2017-01-03T02:56:42.336Z,60.22
2017-01-03T02:57:51.303Z,60.51
2017-01-03T02:59:00.280Z,60.13
2017-01-03T03:00:09.251Z,60.13
2017-01-03T03:01:18.239Z,60.41
2017-01-03T03:02:27.221Z,60.7
2017-01-03T03:03:36.244Z,60.22
2017-01-03T03:04:45.215Z,60.67
2017-01-03T03:05:54.202Z,60.8
2017-01-03T03:07:03.192Z,60.51
2017-01-03T03:08:12.177Z,60.32
2017-01-03T03:09:21.153Z,60.22
2017-01-03T03:10:30.118Z,59.94
2017-01-03T03:11:39.095Z,60.03
2017-01-03T03:12:48.083Z,60.32
2017-01-03T03:13:57.043Z,60.41
2017-01-03T03:15:06.020Z,60.32
2017-01-03T03:16:14.988Z,60.51
2017-01-03T03:17:23.968Z,60.51
2017-01-03T03:18:32.937Z,60.41
2017-01-03T03:19:41.929Z,60.41
2017-01-03T03:20:50.907Z,60.32
2017-01-03T03:21:59.881Z,60.41
2017-01-03T03:23:08.852Z,60.22
2017-01-03T03:24:17.829Z,60.61
2017-01-03T03:25:26.806Z,60.61
2017-01-03T03:26:35.772Z,59.84
2017-01-03T03:27:44.746Z,60.13
2017-01-03T03:28:53.721Z,60.19
2017-01-03T03:30:02.690Z,60.19
2017-01-03T03:31:11.658Z,60.13
2017-01-03T03:32:20.686Z,60.48
2017-01-03T03:33:29.676Z,60.29
2017-01-03T03:34:38.648Z,60.48
2017-01-03T03:35:47.617Z,60.38
2017-01-03T03:36:56.595Z,60
2017-01-03T03:38:05.573Z,60.29
2017-01-03T03:39:14.547Z,60.1
2017-01-03T03:40:23.528Z,60.38
2017-01-03T03:41:32.507Z,60.48
2017-01-03T03:42:41.502Z,60.19
2017-01-03T03:43:50.489Z,60.58
2017-01-03T03:44:59.467Z,60.58
2017-01-03T03:46:08.468Z,60.48
2017-01-03T03:47:17.443Z,60.29
2017-01-03T03:48:26.431Z,60.96
2017-01-03T03:49:35.410Z,60.96
2017-01-03T03:50:44.388Z,60.77
2017-01-03T03:51:53.358Z,60.86
2017-01-03T03:53:02.323Z,61.15
2017-01-03T03:54:11.312Z,60.77
2017-01-03T03:55:20.291Z,61.05
2017-01-03T03:56:29.260Z,61.05
2017-01-03T03:57:38.221Z,60.96
2017-01-03T03:58:47.202Z,60.86
2017-01-03T03:59:56.164Z,61.05
2017-01-03T04:01:05.140Z,61.15
2017-01-03T04:02:14.129Z,61.34
2017-01-03T04:03:23.100Z,61.51
2017-01-03T04:04:32.071Z,61.41
2017-01-03T04:05:41.053Z,61.41
2017-01-03T04:06:50.029Z,61.44
2017-01-03T04:07:59.039Z,61.31
2017-01-03T04:09:08.021Z,61.15
2017-01-03T04:10:16.986Z,61.41
2017-01-03T04:11:25.965Z,61.22
2017-01-03T04:12:34.950Z,61.6
2017-01-03T04:13:43.918Z,61.54
2017-01-03T04:14:52.898Z,61.63
2017-01-03T04:16:01.879Z,61.69
2017-01-03T04:17:10.909Z,61.69
2017-01-03T04:18:19.875Z,61.79
2017-01-03T04:19:28.856Z,61.22
2017-01-03T04:20:37.829Z,61.69
2017-01-03T04:21:46.837Z,61.41
2017-01-03T04:22:55.828Z,61.98
2017-01-03T04:24:04.794Z,61.51
2017-01-03T04:25:13.773Z,61.12
2017-01-03T04:26:22.752Z,61.72
2017-01-03T04:27:31.730Z,62.11
2017-01-03T04:28:40.700Z,61.6
2017-01-03T04:29:49.683Z,61.41
2017-01-03T04:30:58.658Z,62.08
2017-01-03T04:32:07.628Z,61.98
2017-01-03T04:33:16.617Z,62.08
2017-01-03T04:34:25.635Z,61.41
2017-01-03T04:35:34.606Z,61.51
2017-01-03T04:36:43.582Z,61.51
2017-01-03T04:37:52.550Z,61.6
2017-01-03T04:39:01.521Z,61.6
2017-01-03T04:40:10.493Z,61.79
2017-01-03T04:41:19.503Z,62.08
2017-01-03T04:42:29.475Z,61.69
2017-01-03T04:43:38.488Z,61.41
2017-01-03T04:44:47.464Z,61.41
2017-01-03T04:45:56.431Z,61.51
2017-01-03T04:47:05.486Z,61.88
2017-01-03T04:48:14.456Z,61.51
2017-01-03T04:49:23.458Z,61.69
2017-01-03T04:50:32.431Z,61.69
2017-01-03T04:51:41.409Z,61.41
2017-01-03T04:52:50.376Z,61.31
2017-01-03T04:53:59.365Z,61.79
2017-01-03T04:55:08.354Z,62.08
2017-01-03T04:56:17.321Z,61.88
2017-01-03T04:57:26.317Z,61.6
2017-01-03T04:58:35.287Z,61.31
2017-01-03T04:59:44.262Z,62.17
2017-01-03T05:00:53.236Z,62.08
2017-01-03T05:02:02.229Z,62.08
2017-01-03T05:03:11.215Z,61.88
2017-01-03T05:04:20.193Z,61.79
2017-01-03T05:05:29.169Z,61.88
2017-01-03T05:06:38.138Z,61.98
2017-01-03T05:07:47.115Z,62.08
2017-01-03T05:08:56.085Z,62.17
2017-01-03T05:10:05.069Z,61.88
2017-01-03T05:11:14.038Z,62.08
2017-01-03T05:12:23.016Z,61.88
2017-01-03T05:13:32.020Z,61.95
2017-01-03T05:14:40.995Z,61.88
2017-01-03T05:15:49.975Z,61.95
2017-01-03T05:16:58.956Z,61.79
2017-01-03T05:18:07.930Z,61.66
2017-01-03T05:19:16.900Z,62.08
2017-01-03T05:20:25.879Z,62.08
2017-01-03T05:21:34.843Z,61.88
2017-01-03T05:22:43.816Z,62.04
2017-01-03T05:23:52.788Z,61.85
2017-01-03T05:25:01.775Z,61.76
2017-01-03T05:26:10.744Z,62.43
2017-01-03T05:27:19.727Z,62.71
2017-01-03T05:28:28.691Z,62.52
2017-01-03T05:29:37.663Z,62.43
2017-01-03T05:30:46.638Z,62.81
2017-01-03T05:31:55.611Z,62.71
2017-01-03T05:33:04.582Z,62.43
2017-01-03T05:34:13.562Z,62.43
2017-01-03T05:35:22.538Z,62.81
2017-01-03T05:36:31.516Z,62.14
2017-01-03T05:37:40.493Z,62.14
2017-01-03T05:38:49.490Z,61.95
2017-01-03T05:39:58.454Z,62.04
2017-01-03T05:41:07.436Z,62.43
2017-01-03T05:42:16.398Z,62.24
2017-01-03T05:43:25.381Z,62.62
2017-01-03T05:44:34.396Z,62.9
2017-01-03T05:45:43.364Z,62.52
2017-01-03T05:46:52.338Z,62.71
2017-01-03T05:48:01.298Z,62.43
2017-01-03T05:49:10.303Z,62.52
2017-01-03T05:50:19.264Z,62.62
2017-01-03T05:51:28.230Z,62.43
2017-01-03T05:52:37.199Z,62.52
2017-01-03T05:53:46.177Z,63
2017-01-03T05:54:55.156Z,62.9
2017-01-03T05:56:04.134Z,62.52
2017-01-03T05:57:13.106Z,62.62
2017-01-03T05:58:22.081Z,62.62
2017-01-03T05:59:31.060Z,62.62
2017-01-03T06:00:40.026Z,62.71
2017-01-03T06:01:49.004Z,62.9
2017-01-03T06:02:57.972Z,62.43
2017-01-03T06:04:06.946Z,62.71
2017-01-03T06:05:15.934Z,62.81
2017-01-03T06:06:24.921Z,62.9
2017-01-03T06:07:33.894Z,63
2017-01-03T06:08:42.855Z,62.33
2017-01-03T06:09:52.249Z,63.19
2017-01-03T06:11:01.213Z,62.9
2017-01-03T06:12:10.201Z,62.9
2017-01-03T06:13:19.185Z,62.43
2017-01-03T06:14:28.154Z,63.1
2017-01-03T06:15:37.131Z,62.71
2017-01-03T06:16:46.102Z,63.1
2017-01-03T06:17:55.078Z,62.9
2017-01-03T06:19:04.078Z,63.48
2017-01-03T06:20:13.059Z,63.48
2017-01-03T06:21:22.060Z,63.39
2017-01-03T06:22:31.036Z,63.1
2017-01-03T06:23:40.128Z,63.45
2017-01-03T06:24:49.101Z,63.19
2017-01-03T06:25:58.067Z,63.48
2017-01-03T06:27:07.052Z,63.29
2017-01-03T06:28:16.028Z,63.19
2017-01-03T06:29:24.991Z,63.29
2017-01-03T06:30:33.975Z,63.29
2017-01-03T06:31:42.952Z,63
2017-01-03T06:32:51.915Z,63
2017-01-03T06:34:00.902Z,63
2017-01-03T06:35:09.873Z,63.48
2017-01-03T06:36:18.847Z,63.26
2017-01-03T06:37:27.818Z,63.29
2017-01-03T06:38:36.810Z,63.29
2017-01-03T06:39:45.781Z,63.39
2017-01-03T06:40:54.762Z,63.16
2017-01-03T06:42:03.736Z,63.48
2017-01-03T06:43:12.719Z,63.19
2017-01-03T06:44:21.698Z,63.39
2017-01-03T06:45:30.687Z,63.54
2017-01-03T06:46:39.666Z,64.02
2017-01-03T06:47:48.658Z,63.73
2017-01-03T06:48:57.636Z,63.73
2017-01-03T06:50:06.600Z,63.57
2017-01-03T06:51:15.585Z,63.26
2017-01-03T06:52:24.556Z,64.12
2017-01-03T06:53:33.520Z,63.73
2017-01-03T06:54:42.500Z,64.02
2017-01-03T06:55:51.478Z,64.22
2017-01-03T06:57:00.483Z,64.05
2017-01-03T06:58:09.448Z,63.83
2017-01-03T06:59:18.430Z,63.83
2017-01-03T07:00:27.402Z,63.64
2017-01-03T07:01:36.368Z,63.54
2017-01-03T07:02:45.351Z,63.93
2017-01-03T07:03:54.329Z,64.02
2017-01-03T07:05:03.340Z,64.12
2017-01-03T07:06:12.312Z,64.05
2017-01-03T07:07:21.287Z,63.86
2017-01-03T07:08:30.267Z,63.76
2017-01-03T07:09:39.247Z,64.12
2017-01-03T07:10:48.225Z,63.45
2017-01-03T07:11:57.200Z,63.35
2017-01-03T07:13:06.208Z,64.05
2017-01-03T07:14:15.201Z,64.02
2017-01-03T07:15:24.167Z,64.02
2017-01-03T07:16:33.139Z,63.73
2017-01-03T07:17:42.113Z,63.93
2017-01-03T07:18:51.096Z,64.15
2017-01-03T07:20:00.071Z,64.12
2017-01-03T07:21:09.053Z,63.83
2017-01-03T07:22:18.051Z,63.73
2017-01-03T07:23:27.019Z,64.22
2017-01-03T07:24:36.000Z,64.22
2017-01-03T07:25:44.962Z,64.02
2017-01-03T07:26:53.945Z,63.83
2017-01-03T07:28:02.944Z,64.02
2017-01-03T07:29:11.916Z,64.31
2017-01-03T07:30:20.895Z,64.31
2017-01-03T07:31:29.874Z,64.31
2017-01-03T07:32:38.846Z,64.31
2017-01-03T07:33:47.811Z,64.12
2017-01-03T07:34:56.787Z,63.93
2017-01-03T07:36:05.766Z,63.83
2017-01-03T07:37:14.744Z,63.83
2017-01-03T07:38:23.712Z,64.4
2017-01-03T07:39:32.686Z,64.12
2017-01-03T07:40:41.664Z,64.22
2017-01-03T07:41:50.656Z,64.22
2017-01-03T07:42:59.637Z,64.59
2017-01-03T07:44:08.601Z,64.5
2017-01-03T07:45:17.567Z,64.78
2017-01-03T07:46:26.548Z,64.88
2017-01-03T07:47:35.533Z,64.59
2017-01-03T07:48:44.518Z,64.78
2017-01-03T07:49:53.492Z,64.98
2017-01-03T07:51:02.460Z,64.69
2017-01-03T07:52:11.439Z,64.59
2017-01-03T07:53:20.414Z,64.31
2017-01-03T07:54:29.393Z,64.4
2017-01-03T07:55:38.381Z,64.69
2017-01-03T07:56:47.362Z,64.78
2017-01-03T07:57:56.326Z,64.69
2017-01-03T07:59:05.313Z,65.07
2017-01-03T08:00:14.309Z,65.17
2017-01-03T08:01:23.286Z,65.17
2017-01-03T08:02:32.257Z,65.26
2017-01-03T08:03:41.231Z,65.26
2017-01-03T08:04:50.206Z,65.07
2017-01-03T08:05:59.218Z,64.98
2017-01-03T08:07:08.201Z,65.07
2017-01-03T08:08:17.168Z,65.17
2017-01-03T08:09:26.140Z,65.17
2017-01-03T08:10:35.111Z,65.36
2017-01-03T08:11:44.086Z,65.07
2017-01-03T08:12:53.054Z,65.45
2017-01-03T08:14:02.059Z,69.47
2017-01-03T08:15:11.050Z,72.85
2017-01-03T08:16:20.023Z,73.14
2017-01-03T08:17:28.998Z,74.13
2017-01-03T08:18:37.958Z,75.56
2017-01-03T08:19:46.932Z,75.12
2017-01-03T08:20:55.910Z,75.98
2017-01-03T08:22:04.900Z,76.27
2017-01-03T08:23:13.866Z,75.7
2017-01-03T08:24:22.851Z,76.84
2017-01-03T08:25:31.807Z,77.8
2017-01-03T08:26:41.182Z,76.89
2017-01-03T08:27:50.162Z,78.51
2017-01-03T08:28:59.149Z,78.99
2017-01-03T08:30:08.120Z,78.61
2017-01-03T08:31:17.097Z,77.94
2017-01-03T08:32:26.075Z,79.85
2017-01-03T08:33:35.062Z,78.7
2017-01-03T08:34:44.032Z,77.59
2017-01-03T08:35:53.006Z,77.69
2017-01-03T08:37:01.999Z,79.22
2017-01-03T08:38:10.986Z,79.03
2017-01-03T08:39:19.958Z,79.03
2017-01-03T08:40:28.939Z,80.37
2017-01-03T08:41:37.907Z,79.32
2017-01-03T08:42:46.892Z,79.51
2017-01-03T08:43:55.870Z,78.64
2017-01-03T08:45:04.842Z,78.17
2017-01-03T08:46:13.811Z,76.73
2017-01-03T08:47:22.775Z,78.17
2017-01-03T08:48:31.762Z,78.64
2017-01-03T08:49:40.736Z,78.78
2017-01-03T08:50:49.704Z,79.36
2017-01-03T08:51:58.673Z,79.93
2017-01-03T08:53:07.655Z,78.88
2017-01-03T08:54:16.620Z,78.69
2017-01-03T08:55:25.609Z,78.63
2017-01-03T08:56:34.596Z,78.72
2017-01-03T08:57:43.559Z,77.86
2017-01-03T08:58:52.523Z,78.44
2017-01-03T09:00:01.500Z,79.11
2017-01-03T09:01:10.483Z,78.34
2017-01-03T09:02:20.131Z,78.15
2017-01-03T09:03:29.547Z,79.39
2017-01-03T09:04:38.513Z,79.01
2017-01-03T09:05:47.474Z,78.25
2017-01-03T09:06:56.454Z,78.19
2017-01-03T09:08:05.895Z,79.21
2017-01-03T09:09:14.914Z,78.57
2017-01-03T09:10:23.893Z,78.67
2017-01-03T09:11:32.872Z,78.67
2017-01-03T09:12:41.862Z,77.42
2017-01-03T09:13:50.828Z,78.09
2017-01-03T09:14:59.810Z,78.28
2017-01-03T09:16:08.790Z,77.61
2017-01-03T09:17:17.764Z,78.28
2017-01-03T09:18:26.731Z,78.03
2017-01-03T09:19:35.718Z,76.98
2017-01-03T09:20:44.680Z,78.13
2017-01-03T09:21:53.669Z,78.08
2017-01-03T09:23:02.628Z,76.92
2017-01-03T09:24:11.622Z,78.17
2017-01-03T09:25:20.629Z,77.63
2017-01-03T09:26:29.614Z,78.21
2017-01-03T09:27:38.588Z,78.11
2017-01-03T09:28:47.576Z,78.02
2017-01-03T09:29:56.625Z,77.73
2017-01-03T09:31:05.607Z,77.86
2017-01-03T09:32:14.604Z,77.19
2017-01-03T09:33:23.609Z,77.96
2017-01-03T09:34:32.599Z,78.25
2017-01-03T09:35:41.585Z,78.38
2017-01-03T09:36:50.560Z,78.67
2017-01-03T09:37:59.555Z,77.42
2017-01-03T09:39:08.524Z,78.77
2017-01-03T09:40:17.522Z,78.48
2017-01-03T09:41:26.506Z,78.34
2017-01-03T09:42:35.513Z,79.3
2017-01-03T09:43:44.496Z,78.34
2017-01-03T09:44:53.494Z,78.15
2017-01-03T09:46:02.470Z,77.09
2017-01-03T09:47:11.486Z,77.19
2017-01-03T09:48:20.459Z,77
2017-01-03T09:49:29.429Z,76.67
2017-01-03T09:50:38.411Z,76.67
2017-01-03T09:51:47.490Z,77.73
2017-01-03T09:52:56.816Z,79.17
2017-01-03T09:54:05.802Z,78.63
2017-01-03T09:55:14.821Z,76.23
2017-01-03T09:56:23.803Z,76.14
2017-01-03T09:57:32.780Z,76.14
2017-01-03T09:58:41.750Z,72.25
2017-01-03T09:59:50.731Z,64.63
2017-01-03T10:00:59.725Z,65.17
2017-01-03T10:02:08.709Z,69.87
2017-01-03T10:03:17.679Z,72.28
2017-01-03T10:04:26.671Z,73.08
2017-01-03T10:05:35.647Z,73.18
2017-01-03T10:06:44.631Z,73.21
2017-01-03T10:07:53.602Z,73.5
2017-01-03T10:09:02.577Z,74.08
2017-01-03T10:10:11.557Z,73.69
2017-01-03T10:11:20.529Z,74.37
2017-01-03T10:12:29.514Z,73.79
2017-01-03T10:13:38.488Z,73.69
2017-01-03T10:14:47.469Z,74.27
2017-01-03T10:15:56.440Z,74.65
2017-01-03T10:17:05.463Z,74.75
2017-01-03T10:18:14.472Z,74.65
2017-01-03T10:19:23.465Z,76.67
2017-01-03T10:20:32.439Z,76.81
2017-01-03T10:21:41.428Z,77.23
2017-01-03T10:22:50.396Z,77.23
2017-01-03T10:23:59.362Z,77.26
2017-01-03T10:25:08.341Z,77.46
2017-01-03T10:26:17.310Z,77.21
2017-01-03T10:27:26.707Z,77.5
2017-01-03T10:28:35.687Z,76.53
2017-01-03T10:29:44.668Z,77.01
2017-01-03T10:30:53.642Z,77.06
2017-01-03T10:32:02.636Z,76.48
2017-01-03T10:33:11.619Z,76.86
2017-01-03T10:34:20.584Z,77.21
2017-01-03T10:35:29.570Z,77.78
2017-01-03T10:36:38.541Z,79.9
2017-01-03T10:37:47.519Z,78.17
2017-01-03T10:38:56.504Z,78.27
2017-01-03T10:40:05.486Z,77.36
2017-01-03T10:41:14.459Z,77.46
2017-01-03T10:42:23.448Z,76.88
2017-01-03T10:43:32.562Z,77.75
2017-01-03T10:44:41.535Z,76.98
2017-01-03T10:45:50.528Z,76.98
2017-01-03T10:46:59.508Z,76.31
2017-01-03T10:48:08.502Z,76.98
2017-01-03T10:49:17.587Z,77.17
2017-01-03T10:50:26.568Z,77.56
2017-01-03T10:51:35.543Z,77.94
2017-01-03T10:52:44.528Z,77.94
2017-01-03T10:53:53.518Z,78.23
2017-01-03T10:55:02.498Z,77.26
2017-01-03T10:56:11.467Z,77.17
2017-01-03T10:57:20.449Z,77.65
2017-01-03T10:58:29.438Z,77.94
2017-01-03T10:59:38.427Z,77.94
2017-01-03T11:00:47.413Z,77.08
2017-01-03T11:01:56.398Z,77.17
2017-01-03T11:03:05.363Z,77.65
2017-01-03T11:04:14.342Z,77.46
2017-01-03T11:05:23.311Z,78.33
2017-01-03T11:06:32.354Z,77.08
2017-01-03T11:07:41.344Z,77.46
2017-01-03T11:08:50.311Z,78.13
2017-01-03T11:09:59.279Z,78.27
2017-01-03T11:11:08.262Z,77.21
2017-01-03T11:12:17.242Z,77.5
2017-01-03T11:13:26.218Z,77.69
2017-01-03T11:14:35.205Z,77.17
2017-01-03T11:15:44.175Z,77.5
2017-01-03T11:16:53.157Z,77.5
2017-01-03T11:18:02.160Z,77.21
2017-01-03T11:19:11.148Z,77.17
2017-01-03T11:20:20.115Z,77.5
2017-01-03T11:21:29.114Z,77.4
2017-01-03T11:22:38.087Z,77.11
2017-01-03T11:23:47.053Z,77.4
2017-01-03T11:24:56.049Z,77.21
2017-01-03T11:26:05.034Z,77.01
2017-01-03T11:27:14.009Z,77.01
2017-01-03T11:28:22.995Z,77.98
2017-01-03T11:29:31.983Z,77.4
2017-01-03T11:30:40.957Z,77.4
2017-01-03T11:31:49.939Z,77.88
2017-01-03T11:32:58.934Z,77.59
2017-01-03T11:34:07.915Z,77.01
2017-01-03T11:35:16.916Z,77.31
2017-01-03T11:36:25.880Z,77.69
2017-01-03T11:37:34.891Z,77.5
2017-01-03T11:38:43.880Z,77.98
2017-01-03T11:39:52.860Z,78.11
2017-01-03T11:41:01.833Z,78.36
2017-01-03T11:42:10.849Z,78.65
2017-01-03T11:43:19.817Z,78.56
2017-01-03T11:44:28.796Z,77.88
2017-01-03T11:45:37.783Z,77.31
2017-01-03T11:46:46.889Z,77.21
2017-01-03T11:47:55.859Z,77.25
2017-01-03T11:49:04.849Z,77.21
2017-01-03T11:50:13.826Z,77.78
2017-01-03T11:51:22.806Z,77.59
2017-01-03T11:52:31.789Z,77.4
2017-01-03T11:53:40.780Z,77.92
2017-01-03T11:54:49.764Z,77.88
2017-01-03T11:55:58.793Z,77.34
2017-01-03T11:57:07.779Z,77.01
2017-01-03T11:58:16.825Z,77.53
2017-01-03T11:59:25.814Z,77.31
2017-01-03T12:00:34.829Z,77.21
2017-01-03T12:01:43.806Z,77.31
2017-01-03T12:02:52.816Z,77.53
2017-01-03T12:04:01.791Z,77.34
2017-01-03T12:05:10.777Z,77.98
2017-01-03T12:06:19.747Z,77.69
2017-01-03T12:07:28.733Z,77.78
2017-01-03T12:08:39.141Z,77.88
2017-01-03T12:09:48.120Z,77.5
2017-01-03T12:10:57.137Z,77.25
2017-01-03T12:12:07.146Z,77.63
2017-01-03T12:13:16.156Z,77.83
2017-01-03T12:14:25.136Z,77.63
2017-01-03T12:15:34.123Z,77.73
2017-01-03T12:16:43.103Z,77.15
2017-01-03T12:17:52.080Z,77.92
2017-01-03T12:19:01.066Z,77.83
2017-01-03T12:20:10.051Z,77.83
2017-01-03T12:21:19.037Z,78.79
2017-01-03T12:22:28.028Z,78.02
2017-01-03T12:23:37.010Z,78.4
2017-01-03T12:24:45.991Z,78.31
2017-01-03T12:25:54.964Z,78.11
2017-01-03T12:27:03.949Z,78.02
2017-01-03T12:28:12.934Z,78.02
2017-01-03T12:29:21.908Z,78.21
2017-01-03T12:30:30.891Z,77.44
2017-01-03T12:31:39.868Z,77.63
2017-01-03T12:32:48.852Z,77.44
2017-01-03T12:33:57.825Z,77.92
2017-01-03T12:35:06.817Z,78.4
2017-01-03T12:36:15.797Z,78.4
2017-01-03T12:37:24.770Z,77.25
2017-01-03T12:38:33.760Z,77.44
2017-01-03T12:39:42.734Z,75.99
2017-01-03T12:40:51.713Z,75.61
2017-01-03T12:42:00.701Z,76.76
2017-01-03T12:43:09.689Z,76.57
2017-01-03T12:44:18.669Z,76.67
2017-01-03T12:45:27.649Z,76.67
2017-01-03T12:46:36.643Z,76.48
2017-01-03T12:47:45.634Z,76.48
2017-01-03T12:48:54.624Z,76.67
2017-01-03T12:50:03.597Z,76.48
2017-01-03T12:51:12.571Z,77.15
2017-01-03T12:52:21.557Z,76.28
2017-01-03T12:53:30.543Z,76.67
2017-01-03T12:54:39.550Z,76.57
2017-01-03T12:55:48.536Z,76.76
2017-01-03T12:56:57.518Z,76.48
2017-01-03T12:58:06.503Z,76.76
2017-01-03T12:59:15.477Z,76.57
2017-01-03T13:00:24.464Z,76.86
2017-01-03T13:01:33.427Z,76.57
2017-01-03T13:02:42.420Z,76.67
2017-01-03T13:03:51.386Z,76.76
2017-01-03T13:05:00.370Z,76.48
2017-01-03T13:06:09.351Z,76.57
2017-01-03T13:07:18.327Z,76.28
2017-01-03T13:08:27.300Z,77.06
2017-01-03T13:09:36.289Z,76.18
2017-01-03T13:10:45.254Z,76.57
2017-01-03T13:11:54.248Z,75.9
2017-01-03T13:13:03.232Z,76.57
2017-01-03T13:14:12.245Z,76.28
2017-01-03T13:15:21.216Z,76.48
2017-01-03T13:16:30.195Z,76.57
2017-01-03T13:17:39.173Z,76.09
2017-01-03T13:18:48.157Z,76.28
2017-01-03T13:19:57.130Z,76.18
2017-01-03T13:21:06.113Z,76.28
2017-01-03T13:22:15.099Z,76.18
2017-01-03T13:23:24.088Z,76.18
2017-01-03T13:24:33.064Z,76.38
2017-01-03T13:25:42.047Z,76.38
2017-01-03T13:26:51.017Z,76.09
2017-01-03T13:28:00.000Z,76.18
2017-01-03T13:29:08.988Z,76.18
2017-01-03T13:30:17.999Z,76.28
2017-01-03T13:31:26.987Z,75.9
2017-01-03T13:32:35.982Z,76.18
2017-01-03T13:33:44.960Z,75.71
2017-01-03T13:34:53.952Z,75.61
2017-01-03T13:36:02.941Z,75.99
2017-01-03T13:37:11.924Z,75.9
2017-01-03T13:38:20.890Z,76.28
2017-01-03T13:39:29.880Z,76.09
2017-01-03T13:40:38.853Z,75.9
2017-01-03T13:41:47.839Z,75.99
2017-01-03T13:42:56.824Z,75.9
2017-01-03T13:44:05.815Z,75.71
2017-01-03T13:45:14.796Z,75.9
2017-01-03T13:46:23.767Z,75.9
2017-01-03T13:47:32.754Z,75.9
2017-01-03T13:48:41.744Z,75.9
2017-01-03T13:49:50.723Z,75.8
2017-01-03T13:50:59.716Z,75.9
2017-01-03T13:52:08.697Z,76.09
2017-01-03T13:53:17.696Z,75.9
2017-01-03T13:54:26.670Z,75.9
2017-01-03T13:55:35.656Z,76.09
2017-01-03T13:56:44.628Z,75.9
2017-01-03T13:57:53.615Z,75.9
2017-01-03T13:59:02.595Z,75.99
2017-01-03T14:00:11.585Z,75.8
2017-01-03T14:01:20.581Z,76.09
2017-01-03T14:02:29.561Z,75.32
2017-01-03T14:03:38.546Z,75.42
2017-01-03T14:04:47.522Z,75.99
2017-01-03T14:05:56.495Z,75.51
2017-01-03T14:07:05.481Z,75.61
2017-01-03T14:08:14.467Z,75.99
2017-01-03T14:09:23.452Z,75.99
2017-01-03T14:10:32.424Z,75.99
2017-01-03T14:11:41.408Z,76.09
2017-01-03T14:12:50.383Z,75.61
2017-01-03T14:13:59.351Z,75.61
2017-01-03T14:15:08.333Z,75.61
2017-01-03T14:16:17.297Z,75.51
2017-01-03T14:17:26.708Z,75.32
2017-01-03T14:18:35.689Z,75.42
2017-01-03T14:19:44.675Z,74.93
2017-01-03T14:20:53.650Z,75.61
2017-01-03T14:22:03.032Z,75.13
2017-01-03T14:23:12.018Z,75.42
2017-01-03T14:24:20.993Z,75.03
2017-01-03T14:25:29.989Z,75.23
2017-01-03T14:26:38.972Z,75.51
2017-01-03T14:27:47.946Z,75.32
2017-01-03T14:28:56.942Z,75.23
2017-01-03T14:30:05.924Z,75.23
2017-01-03T14:31:14.905Z,75.13
2017-01-03T14:32:23.900Z,76.09
2017-01-03T14:33:32.870Z,75.03
2017-01-03T14:34:41.847Z,75.03
2017-01-03T14:35:50.833Z,75.61
2017-01-03T14:36:59.820Z,75.13
2017-01-03T14:38:08.798Z,75.32
2017-01-03T14:39:17.836Z,75.42
2017-01-03T14:40:26.805Z,75.42
2017-01-03T14:41:35.778Z,75.13
2017-01-03T14:42:44.773Z,75.13
2017-01-03T14:43:53.758Z,75.23
2017-01-03T14:45:02.744Z,75.23
2017-01-03T14:46:11.728Z,75.03
2017-01-03T14:47:20.707Z,75.13
2017-01-03T14:48:29.696Z,75.13
2017-01-03T14:49:38.685Z,75.23
2017-01-03T14:50:47.673Z,75.23
2017-01-03T14:51:56.645Z,75.42